sensor_id;sensor_type;location;lat;lon;timestamp;pressure;altitude;pressure_sealevel;temperature;humidity
68376;BME280;55318;52.068;5.188;2023-05-24T00:00:48;102545.0;;;10.26;85.24
68376;BME280;55318;52.068;5.188;2023-05-24T00:02:24;102542.0;;;10.18;85.41
68376;BME280;55318;52.068;5.188;2023-05-24T00:04:00;102540.00000000001;;;10.13;85.42
68376;BME280;55318;52.068;5.188;2023-05-24T00:07:12;102540.00000000001;;;10.08;85.89
68376;BME280;55318;52.068;5.188;2023-05-24T00:08:48;102533.99999999999;;;9.99;86.25
68376;BME280;55318;52.068;5.188;2023-05-24T00:10:25;102532.0;;;9.9;86.35
68376;BME280;55318;52.068;5.188;2023-05-24T00:12:01;102534.99999999999;;;9.81;86.51
68376;BME280;55318;52.068;5.188;2023-05-24T00:15:14;102530.0;;;9.74;86.57
68376;BME280;55318;52.068;5.188;2023-05-24T00:16:50;102538.00000000001;;;9.67;86.89
68376;BME280;55318;52.068;5.188;2023-05-24T00:18:26;102530.0;;;9.6;87.56
68376;BME280;55318;52.068;5.188;2023-05-24T00:21:40;102528.0;;;9.56;87.45
68376;BME280;55318;52.068;5.188;2023-05-24T00:23:16;102528.0;;;9.51;87.62
68376;BME280;55318;52.068;5.188;2023-05-24T00:24:52;102527.0;;;9.47;87.93
68376;BME280;55318;52.068;5.188;2023-05-24T00:28:04;102526.0;;;9.4;87.75
68376;BME280;55318;52.068;5.188;2023-05-24T00:29:40;102527.0;;;9.4;88.0
68376;BME280;55318;52.068;5.188;2023-05-24T00:31:16;102528.0;;;9.36;87.94
68376;BME280;55318;52.068;5.188;2023-05-24T00:32:53;102522.0;;;9.31;87.97
68376;BME280;55318;52.068;5.188;2023-05-24T00:36:05;102517.0;;;9.3;88.01
68376;BME280;55318;52.068;5.188;2023-05-24T00:37:41;102519.0;;;9.28;88.08
68376;BME280;55318;52.068;5.188;2023-05-24T00:39:17;102521.0;;;9.24;88.43
68376;BME280;55318;52.068;5.188;2023-05-24T00:42:29;102521.0;;;9.18;88.51
68376;BME280;55318;52.068;5.188;2023-05-24T00:44:06;102523.0;;;9.15;88.46
68376;BME280;55318;52.068;5.188;2023-05-24T00:45:42;102522.0;;;9.13;88.52
68376;BME280;55318;52.068;5.188;2023-05-24T00:48:54;102524.0;;;9.14;88.46
68376;BME280;55318;52.068;5.188;2023-05-24T00:50:32;102520.0;;;9.09;88.46
68376;BME280;55318;52.068;5.188;2023-05-24T00:52:08;102520.0;;;9.06;88.77
68376;BME280;55318;52.068;5.188;2023-05-24T00:53:46;102517.0;;;9.0;88.52
68376;BME280;55318;52.068;5.188;2023-05-24T00:56:59;102518.0;;;8.98;88.78
68376;BME280;55318;52.068;5.188;2023-05-24T00:58:35;102518.0;;;8.96;89.19
68376;BME280;55318;52.068;5.188;2023-05-24T01:00:12;102520.0;;;8.93;89.95
68376;BME280;55318;52.068;5.188;2023-05-24T01:03:26;102516.00000000001;;;8.93;89.7
68376;BME280;55318;52.068;5.188;2023-05-24T01:05:03;102514.00000000001;;;8.92;89.56
68376;BME280;55318;52.068;5.188;2023-05-24T01:06:46;102515.00000000001;;;8.89;89.45
68376;BME280;55318;52.068;5.188;2023-05-24T01:08:44;102513.00000000001;;;8.84;89.7
68376;BME280;55318;52.068;5.188;2023-05-24T01:10:33;102513.00000000001;;;8.84;90.58
68376;BME280;55318;52.068;5.188;2023-05-24T01:14:11;102514.00000000001;;;8.89;90.99
68376;BME280;55318;52.068;5.188;2023-05-24T01:15:57;102513.00000000001;;;8.85;90.33
68376;BME280;55318;52.068;5.188;2023-05-24T01:17:45;102517.0;;;8.85;90.27
68376;BME280;55318;52.068;5.188;2023-05-24T01:20:07;102514.00000000001;;;8.8;90.37
68376;BME280;55318;52.068;5.188;2023-05-24T01:21:52;102515.00000000001;;;8.8;90.79
68376;BME280;55318;52.068;5.188;2023-05-24T01:23:43;102513.00000000001;;;8.84;92.56
68376;BME280;55318;52.068;5.188;2023-05-24T01:25:28;102506.0;;;8.83;91.91
68376;BME280;55318;52.068;5.188;2023-05-24T01:27:21;102508.99999999999;;;8.83;91.43
68376;BME280;55318;52.068;5.188;2023-05-24T01:30:38;102508.0;;;8.78;91.39
68376;BME280;55318;52.068;5.188;2023-05-24T01:32:15;102513.00000000001;;;8.81;91.52
68376;BME280;55318;52.068;5.188;2023-05-24T01:33:53;102511.99999999999;;;8.77;91.63
68376;BME280;55318;52.068;5.188;2023-05-24T01:37:05;102508.99999999999;;;8.77;92.24
68376;BME280;55318;52.068;5.188;2023-05-24T01:38:42;102508.0;;;8.75;91.35
68376;BME280;55318;52.068;5.188;2023-05-24T01:40:19;102506.0;;;8.74;91.3
68376;BME280;55318;52.068;5.188;2023-05-24T01:42:06;102508.99999999999;;;8.71;91.01
68376;BME280;55318;52.068;5.188;2023-05-24T01:45:34;102507.0;;;8.72;91.55
68376;BME280;55318;52.068;5.188;2023-05-24T01:47:24;102507.0;;;8.72;91.34
68376;BME280;55318;52.068;5.188;2023-05-24T01:49:10;102508.0;;;8.76;91.48
68376;BME280;55318;52.068;5.188;2023-05-24T01:50:57;102513.00000000001;;;8.81;91.03
68376;BME280;55318;52.068;5.188;2023-05-24T01:52:35;102509.99999999999;;;8.83;91.12
68376;BME280;55318;52.068;5.188;2023-05-24T01:55:52;102514.00000000001;;;8.89;91.02
68376;BME280;55318;52.068;5.188;2023-05-24T01:57:31;102509.99999999999;;;8.97;90.98
68376;BME280;55318;52.068;5.188;2023-05-24T01:59:10;102513.00000000001;;;8.96;91.49
68376;BME280;55318;52.068;5.188;2023-05-24T02:00:48;102509.99999999999;;;8.98;91.06
68376;BME280;55318;52.068;5.188;2023-05-24T02:04:01;102507.0;;;9.02;90.9
68376;BME280;55318;52.068;5.188;2023-05-24T02:05:37;102496.0;;;9.13;90.83
68376;BME280;55318;52.068;5.188;2023-05-24T02:07:14;102494.0;;;9.14;90.81
68376;BME280;55318;52.068;5.188;2023-05-24T02:10:26;102492.0;;;9.23;91.18
68376;BME280;55318;52.068;5.188;2023-05-24T02:12:02;102491.00000000001;;;9.33;91.23
68376;BME280;55318;52.068;5.188;2023-05-24T02:13:39;102497.0;;;9.3;91.11
68376;BME280;55318;52.068;5.188;2023-05-24T02:16:52;102499.0;;;9.23;91.33
68376;BME280;55318;52.068;5.188;2023-05-24T02:18:28;102499.0;;;9.35;90.91
68376;BME280;55318;52.068;5.188;2023-05-24T02:20:05;102499.0;;;9.36;90.8
68376;BME280;55318;52.068;5.188;2023-05-24T02:21:41;102497.0;;;9.28;91.55
68376;BME280;55318;52.068;5.188;2023-05-24T02:24:53;102498.0;;;9.22;90.72
68376;BME280;55318;52.068;5.188;2023-05-24T02:26:29;102497.0;;;9.15;90.63
68376;BME280;55318;52.068;5.188;2023-05-24T02:28:05;102500.0;;;9.14;90.77
68376;BME280;55318;52.068;5.188;2023-05-24T02:31:18;102505.0;;;9.05;91.01
68376;BME280;55318;52.068;5.188;2023-05-24T02:32:54;102506.0;;;8.99;91.03
68376;BME280;55318;52.068;5.188;2023-05-24T02:34:30;102508.0;;;8.94;90.9
68376;BME280;55318;52.068;5.188;2023-05-24T02:37:42;102508.0;;;8.91;90.95
68376;BME280;55318;52.068;5.188;2023-05-24T02:39:18;102507.0;;;8.89;90.67
68376;BME280;55318;52.068;5.188;2023-05-24T02:40:55;102508.0;;;8.83;90.89
68376;BME280;55318;52.068;5.188;2023-05-24T02:42:31;102511.99999999999;;;8.84;91.15
68376;BME280;55318;52.068;5.188;2023-05-24T02:45:43;102513.00000000001;;;8.78;91.09
68376;BME280;55318;52.068;5.188;2023-05-24T02:47:19;102509.99999999999;;;8.73;91.24
68376;BME280;55318;52.068;5.188;2023-05-24T02:48:55;102511.99999999999;;;8.68;91.38
68376;BME280;55318;52.068;5.188;2023-05-24T02:52:08;102505.0;;;8.61;92.35
68376;BME280;55318;52.068;5.188;2023-05-24T02:53:44;102502.0;;;8.58;92.46
68376;BME280;55318;52.068;5.188;2023-05-24T02:55:20;102499.0;;;8.56;92.72
68376;BME280;55318;52.068;5.188;2023-05-24T02:58:32;102498.0;;;8.55;93.36
68376;BME280;55318;52.068;5.188;2023-05-24T03:00:09;102504.0;;;8.47;93.21
68376;BME280;55318;52.068;5.188;2023-05-24T03:01:46;102502.0;;;8.47;93.46
68376;BME280;55318;52.068;5.188;2023-05-24T03:04:59;102504.0;;;8.42;92.71
68376;BME280;55318;52.068;5.188;2023-05-24T03:06:35;102506.0;;;8.4;92.68
68376;BME280;55318;52.068;5.188;2023-05-24T03:08:11;102505.0;;;8.35;93.04
68376;BME280;55318;52.068;5.188;2023-05-24T03:09:47;102509.99999999999;;;8.33;92.83
68376;BME280;55318;52.068;5.188;2023-05-24T03:12:59;102511.99999999999;;;8.33;92.51
68376;BME280;55318;52.068;5.188;2023-05-24T03:14:35;102508.0;;;8.32;92.69
68376;BME280;55318;52.068;5.188;2023-05-24T03:16:12;102509.99999999999;;;8.27;92.39
68376;BME280;55318;52.068;5.188;2023-05-24T03:19:24;102506.0;;;8.25;92.69
68376;BME280;55318;52.068;5.188;2023-05-24T03:21:00;102506.0;;;8.2;92.59
68376;BME280;55318;52.068;5.188;2023-05-24T03:22:36;102502.0;;;8.15;92.39
68376;BME280;55318;52.068;5.188;2023-05-24T03:25:48;102494.0;;;8.14;92.59
68376;BME280;55318;52.068;5.188;2023-05-24T03:27:25;102500.0;;;8.15;92.69
68376;BME280;55318;52.068;5.188;2023-05-24T03:29:01;102501.0;;;8.15;92.61
68376;BME280;55318;52.068;5.188;2023-05-24T03:32:13;102497.0;;;8.13;92.77
68376;BME280;55318;52.068;5.188;2023-05-24T03:33:49;102502.0;;;8.14;92.47
68376;BME280;55318;52.068;5.188;2023-05-24T03:35:25;102498.0;;;8.09;92.57
68376;BME280;55318;52.068;5.188;2023-05-24T03:37:02;102503.0;;;8.1;92.9
68376;BME280;55318;52.068;5.188;2023-05-24T03:40:14;102500.0;;;8.07;92.5
68376;BME280;55318;52.068;5.188;2023-05-24T03:41:50;102498.0;;;8.09;92.82
68376;BME280;55318;52.068;5.188;2023-05-24T03:43:26;102495.0;;;8.07;92.85
68376;BME280;55318;52.068;5.188;2023-05-24T03:46:39;102494.0;;;8.08;93.18
68376;BME280;55318;52.068;5.188;2023-05-24T03:48:16;102486.99999999999;;;8.06;92.79
68376;BME280;55318;52.068;5.188;2023-05-24T03:49:52;102490.00000000001;;;8.03;93.02
68376;BME280;55318;52.068;5.188;2023-05-24T03:53:04;102493.0;;;8.03;93.43
68376;BME280;55318;52.068;5.188;2023-05-24T03:54:40;102488.00000000001;;;8.03;93.95
68376;BME280;55318;52.068;5.188;2023-05-24T03:56:16;102490.00000000001;;;8.06;93.67
68376;BME280;55318;52.068;5.188;2023-05-24T03:57:52;102489.00000000001;;;8.05;93.5
68376;BME280;55318;52.068;5.188;2023-05-24T04:01:05;102484.99999999999;;;8.06;93.8
68376;BME280;55318;52.068;5.188;2023-05-24T04:02:41;102482.0;;;8.05;93.42
68376;BME280;55318;52.068;5.188;2023-05-24T04:04:17;102483.0;;;8.01;93.68
68376;BME280;55318;52.068;5.188;2023-05-24T04:07:29;102479.0;;;8.06;93.88
68376;BME280;55318;52.068;5.188;2023-05-24T04:09:05;102483.99999999999;;;8.06;94.02
68376;BME280;55318;52.068;5.188;2023-05-24T04:10:42;102484.99999999999;;;8.06;94.05
68376;BME280;55318;52.068;5.188;2023-05-24T04:13:54;102482.0;;;8.06;93.81
68376;BME280;55318;52.068;5.188;2023-05-24T04:15:32;102484.99999999999;;;8.07;94.17
68376;BME280;55318;52.068;5.188;2023-05-24T04:17:08;102483.99999999999;;;8.13;94.23
68376;BME280;55318;52.068;5.188;2023-05-24T04:20:20;102489.00000000001;;;8.1;94.29
68376;BME280;55318;52.068;5.188;2023-05-24T04:21:57;102486.99999999999;;;8.14;94.43
68376;BME280;55318;52.068;5.188;2023-05-24T04:23:34;102490.00000000001;;;8.22;94.6
68376;BME280;55318;52.068;5.188;2023-05-24T04:25:10;102492.0;;;8.26;94.58
68376;BME280;55318;52.068;5.188;2023-05-24T04:28:22;102495.0;;;8.27;94.51
68376;BME280;55318;52.068;5.188;2023-05-24T04:29:58;102492.0;;;8.33;94.78
68376;BME280;55318;52.068;5.188;2023-05-24T04:31:34;102491.00000000001;;;8.38;94.84
68376;BME280;55318;52.068;5.188;2023-05-24T04:34:47;102491.00000000001;;;8.35;94.8
68376;BME280;55318;52.068;5.188;2023-05-24T04:36:23;102486.99999999999;;;8.44;95.04
68376;BME280;55318;52.068;5.188;2023-05-24T04:37:59;102484.99999999999;;;8.5;95.02
68376;BME280;55318;52.068;5.188;2023-05-24T04:41:11;102490.00000000001;;;8.6;95.34
68376;BME280;55318;52.068;5.188;2023-05-24T04:42:48;102491.00000000001;;;8.69;95.25
68376;BME280;55318;52.068;5.188;2023-05-24T04:44:25;102489.00000000001;;;8.77;96.14
68376;BME280;55318;52.068;5.188;2023-05-24T04:46:01;102492.0;;;8.92;96.65
68376;BME280;55318;52.068;5.188;2023-05-24T04:49:16;102489.00000000001;;;9.06;97.89
68376;BME280;55318;52.068;5.188;2023-05-24T04:50:53;102492.0;;;9.19;97.81
68376;BME280;55318;52.068;5.188;2023-05-24T04:52:30;102492.0;;;9.31;98.8
68376;BME280;55318;52.068;5.188;2023-05-24T04:55:42;102491.00000000001;;;9.51;98.06
68376;BME280;55318;52.068;5.188;2023-05-24T04:57:19;102489.00000000001;;;9.68;97.72
68376;BME280;55318;52.068;5.188;2023-05-24T04:58:55;102495.0;;;9.84;97.15
68376;BME280;55318;52.068;5.188;2023-05-24T05:02:07;102495.0;;;9.89;97.15
68376;BME280;55318;52.068;5.188;2023-05-24T05:03:43;102495.0;;;10.14;96.79
68376;BME280;55318;52.068;5.188;2023-05-24T05:05:19;102496.0;;;10.16;96.84
68376;BME280;55318;52.068;5.188;2023-05-24T05:06:56;102493.0;;;10.25;97.01
68376;BME280;55318;52.068;5.188;2023-05-24T05:10:08;102494.0;;;10.4;96.99
68376;BME280;55318;52.068;5.188;2023-05-24T05:11:45;102492.0;;;10.44;97.05
68376;BME280;55318;52.068;5.188;2023-05-24T05:13:21;102493.0;;;10.57;96.55
68376;BME280;55318;52.068;5.188;2023-05-24T05:16:33;102498.0;;;10.8;95.45
68376;BME280;55318;52.068;5.188;2023-05-24T05:18:09;102497.0;;;10.9;95.12
68376;BME280;55318;52.068;5.188;2023-05-24T05:19:46;102493.0;;;11.03;94.53
68376;BME280;55318;52.068;5.188;2023-05-24T05:22:58;102494.0;;;11.24;94.18
68376;BME280;55318;52.068;5.188;2023-05-24T05:24:34;102495.0;;;11.41;93.18
68376;BME280;55318;52.068;5.188;2023-05-24T05:26:10;102495.0;;;11.58;92.54
68376;BME280;55318;52.068;5.188;2023-05-24T05:29:22;102498.0;;;11.65;92.21
68376;BME280;55318;52.068;5.188;2023-05-24T05:30:59;102500.0;;;11.72;92.51
68376;BME280;55318;52.068;5.188;2023-05-24T05:32:35;102503.0;;;11.79;92.03
68376;BME280;55318;52.068;5.188;2023-05-24T05:34:11;102504.0;;;11.94;91.88
68376;BME280;55318;52.068;5.188;2023-05-24T05:37:23;102513.00000000001;;;11.99;91.59
68376;BME280;55318;52.068;5.188;2023-05-24T05:38:59;102508.99999999999;;;12.07;91.36
68376;BME280;55318;52.068;5.188;2023-05-24T05:40:35;102504.0;;;12.17;89.97
68376;BME280;55318;52.068;5.188;2023-05-24T05:43:48;102511.99999999999;;;12.49;89.14
68376;BME280;55318;52.068;5.188;2023-05-24T05:45:24;102511.99999999999;;;12.63;88.38
68376;BME280;55318;52.068;5.188;2023-05-24T05:47:00;102517.0;;;12.75;87.33
68376;BME280;55318;52.068;5.188;2023-05-24T05:50:12;102517.0;;;12.85;87.03
68376;BME280;55318;52.068;5.188;2023-05-24T05:51:48;102521.0;;;12.86;86.77
68376;BME280;55318;52.068;5.188;2023-05-24T05:53:25;102520.0;;;12.95;85.1
68376;BME280;55318;52.068;5.188;2023-05-24T05:55:01;102517.0;;;13.03;84.66
68376;BME280;55318;52.068;5.188;2023-05-24T05:58:13;102517.0;;;13.12;83.66
68376;BME280;55318;52.068;5.188;2023-05-24T05:59:49;102519.0;;;13.29;83.03
68376;BME280;55318;52.068;5.188;2023-05-24T06:01:25;102515.00000000001;;;13.31;83.27
68376;BME280;55318;52.068;5.188;2023-05-24T06:04:38;102519.0;;;13.47;82.04
68376;BME280;55318;52.068;5.188;2023-05-24T06:07:50;102513.00000000001;;;13.66;81.09
68376;BME280;55318;52.068;5.188;2023-05-24T06:11:02;102515.00000000001;;;13.69;80.72
68376;BME280;55318;52.068;5.188;2023-05-24T06:12:38;102517.0;;;13.86;81.24
68376;BME280;55318;52.068;5.188;2023-05-24T06:14:15;102513.00000000001;;;13.98;80.39
68376;BME280;55318;52.068;5.188;2023-05-24T06:17:27;102517.0;;;14.16;80.41
68376;BME280;55318;52.068;5.188;2023-05-24T06:19:03;102516.00000000001;;;14.25;79.48
68376;BME280;55318;52.068;5.188;2023-05-24T06:20:39;102513.00000000001;;;14.36;78.52
68376;BME280;55318;52.068;5.188;2023-05-24T06:22:15;102516.00000000001;;;14.67;76.97
68376;BME280;55318;52.068;5.188;2023-05-24T06:25:28;102514.00000000001;;;14.6;77.66
68376;BME280;55318;52.068;5.188;2023-05-24T06:27:04;102516.00000000001;;;14.84;76.63
68376;BME280;55318;52.068;5.188;2023-05-24T06:28:40;102516.00000000001;;;15.12;73.25
68376;BME280;55318;52.068;5.188;2023-05-24T06:31:52;102518.0;;;15.21;72.02
68376;BME280;55318;52.068;5.188;2023-05-24T06:33:29;102517.0;;;15.39;72.02
68376;BME280;55318;52.068;5.188;2023-05-24T06:35:06;102517.0;;;15.23;71.55
68376;BME280;55318;52.068;5.188;2023-05-24T06:38:20;102527.0;;;15.37;71.22
68376;BME280;55318;52.068;5.188;2023-05-24T06:39:56;102532.0;;;15.56;70.05
68376;BME280;55318;52.068;5.188;2023-05-24T06:41:32;102527.0;;;15.76;69.3
68376;BME280;55318;52.068;5.188;2023-05-24T06:43:08;102529.0;;;15.88;69.61
68376;BME280;55318;52.068;5.188;2023-05-24T06:46:21;102536.99999999999;;;16.05;69.42
68376;BME280;55318;52.068;5.188;2023-05-24T06:47:57;102538.00000000001;;;16.02;68.48
68376;BME280;55318;52.068;5.188;2023-05-24T06:49:33;102532.0;;;16.07;67.12
68376;BME280;55318;52.068;5.188;2023-05-24T06:52:45;102533.0;;;15.93;68.16
68376;BME280;55318;52.068;5.188;2023-05-24T06:54:21;102533.0;;;16.07;69.13
68376;BME280;55318;52.068;5.188;2023-05-24T06:55:57;102536.99999999999;;;16.27;67.45
68376;BME280;55318;52.068;5.188;2023-05-24T06:59:09;102541.00000000001;;;16.45;65.58
68376;BME280;55318;52.068;5.188;2023-05-24T07:00:45;102541.00000000001;;;16.52;67.85
68376;BME280;55318;52.068;5.188;2023-05-24T07:02:22;102536.99999999999;;;16.53;65.72
68376;BME280;55318;52.068;5.188;2023-05-24T07:05:34;102539.00000000001;;;16.63;67.97
68376;BME280;55318;52.068;5.188;2023-05-24T07:07:11;102539.00000000001;;;16.88;65.55
68376;BME280;55318;52.068;5.188;2023-05-24T07:08:47;102541.00000000001;;;17.0;67.66
68376;BME280;55318;52.068;5.188;2023-05-24T07:10:23;102539.00000000001;;;17.11;64.05
68376;BME280;55318;52.068;5.188;2023-05-24T07:13:36;102533.0;;;17.34;65.08
68376;BME280;55318;52.068;5.188;2023-05-24T07:15:12;102531.0;;;17.45;63.6
68376;BME280;55318;52.068;5.188;2023-05-24T07:16:48;102529.0;;;17.73;62.23
68376;BME280;55318;52.068;5.188;2023-05-24T07:20:00;102533.99999999999;;;17.71;58.98
68376;BME280;55318;52.068;5.188;2023-05-24T07:21:36;102536.99999999999;;;18.07;59.18
68376;BME280;55318;52.068;5.188;2023-05-24T07:23:12;102533.99999999999;;;18.43;57.57
68376;BME280;55318;52.068;5.188;2023-05-24T07:26:25;102531.0;;;18.43;57.05
68376;BME280;55318;52.068;5.188;2023-05-24T07:28:01;102532.0;;;18.38;58.08
68376;BME280;55318;52.068;5.188;2023-05-24T07:29:37;102533.99999999999;;;18.39;55.47
68376;BME280;55318;52.068;5.188;2023-05-24T07:31:13;102533.0;;;18.79;59.16
68376;BME280;55318;52.068;5.188;2023-05-24T07:34:25;102534.99999999999;;;18.93;55.91
68376;BME280;55318;52.068;5.188;2023-05-24T07:36:02;102542.0;;;19.04;55.96
68376;BME280;55318;52.068;5.188;2023-05-24T07:37:38;102547.0;;;19.12;53.85
68376;BME280;55318;52.068;5.188;2023-05-24T07:40:51;102541.00000000001;;;19.16;54.5
68376;BME280;55318;52.068;5.188;2023-05-24T07:42:27;102540.00000000001;;;19.37;55.77
68376;BME280;55318;52.068;5.188;2023-05-24T07:44:03;102538.00000000001;;;19.52;52.56
68376;BME280;55318;52.068;5.188;2023-05-24T07:47:16;102539.00000000001;;;19.5;52.42
68376;BME280;55318;52.068;5.188;2023-05-24T07:48:52;102541.00000000001;;;19.46;56.07
68376;BME280;55318;52.068;5.188;2023-05-24T07:50:28;102534.99999999999;;;19.47;54.93
68376;BME280;55318;52.068;5.188;2023-05-24T07:55:16;102534.99999999999;;;19.48;52.53
68376;BME280;55318;52.068;5.188;2023-05-24T07:56:52;102539.00000000001;;;19.5;57.14
68376;BME280;55318;52.068;5.188;2023-05-24T07:58:29;102534.99999999999;;;19.57;57.43
68376;BME280;55318;52.068;5.188;2023-05-24T08:01:43;102529.0;;;19.73;52.86
68376;BME280;55318;52.068;5.188;2023-05-24T08:03:19;102531.0;;;19.66;53.02
68376;BME280;55318;52.068;5.188;2023-05-24T08:04:55;102533.99999999999;;;19.64;53.95
68376;BME280;55318;52.068;5.188;2023-05-24T08:08:07;102536.99999999999;;;19.64;56.07
68376;BME280;55318;52.068;5.188;2023-05-24T08:09:44;102538.00000000001;;;19.95;57.89
68376;BME280;55318;52.068;5.188;2023-05-24T08:11:20;102540.00000000001;;;20.03;54.89
68376;BME280;55318;52.068;5.188;2023-05-24T08:14:32;102541.00000000001;;;20.18;52.2
68376;BME280;55318;52.068;5.188;2023-05-24T08:16:08;102533.99999999999;;;20.09;55.05
68376;BME280;55318;52.068;5.188;2023-05-24T08:17:44;102532.0;;;20.12;51.53
68376;BME280;55318;52.068;5.188;2023-05-24T08:19:21;102533.0;;;20.11;49.19
68376;BME280;55318;52.068;5.188;2023-05-24T08:22:33;102533.0;;;19.84;51.18
68376;BME280;55318;52.068;5.188;2023-05-24T08:24:09;102539.00000000001;;;19.43;52.34
68376;BME280;55318;52.068;5.188;2023-05-24T08:25:45;102538.00000000001;;;19.41;51.47
68376;BME280;55318;52.068;5.188;2023-05-24T08:28:57;102533.0;;;19.39;57.04
68376;BME280;55318;52.068;5.188;2023-05-24T08:30:33;102533.99999999999;;;19.39;53.59
68376;BME280;55318;52.068;5.188;2023-05-24T08:32:10;102539.00000000001;;;19.36;51.17
68376;BME280;55318;52.068;5.188;2023-05-24T08:35:22;102533.0;;;18.82;57.17
68376;BME280;55318;52.068;5.188;2023-05-24T08:36:58;102532.0;;;18.86;54.65
68376;BME280;55318;52.068;5.188;2023-05-24T08:38:34;102530.0;;;18.86;55.51
68376;BME280;55318;52.068;5.188;2023-05-24T08:41:47;102528.0;;;19.13;58.14
68376;BME280;55318;52.068;5.188;2023-05-24T08:43:25;102533.0;;;19.07;55.12
68376;BME280;55318;52.068;5.188;2023-05-24T08:45:07;102528.0;;;19.22;52.77
68376;BME280;55318;52.068;5.188;2023-05-24T08:46:43;102526.0;;;19.66;54.71
68376;BME280;55318;52.068;5.188;2023-05-24T08:49:59;102522.0;;;19.71;50.84
68376;BME280;55318;52.068;5.188;2023-05-24T08:51:36;102531.0;;;19.87;52.12
68376;BME280;55318;52.068;5.188;2023-05-24T08:53:14;102527.0;;;20.02;49.99
68376;BME280;55318;52.068;5.188;2023-05-24T08:56:29;102521.0;;;20.11;50.04
68376;BME280;55318;52.068;5.188;2023-05-24T08:58:05;102524.0;;;20.25;50.73
68376;BME280;55318;52.068;5.188;2023-05-24T08:59:43;102525.0;;;20.29;49.62
68376;BME280;55318;52.068;5.188;2023-05-24T09:01:19;102527.0;;;20.2;53.45
68376;BME280;55318;52.068;5.188;2023-05-24T09:04:34;102523.0;;;20.14;50.44
68376;BME280;55318;52.068;5.188;2023-05-24T09:06:16;102523.0;;;20.2;50.9
68376;BME280;55318;52.068;5.188;2023-05-24T09:07:54;102521.0;;;20.36;54.2
68376;BME280;55318;52.068;5.188;2023-05-24T09:11:10;102517.0;;;20.45;50.86
68376;BME280;55318;52.068;5.188;2023-05-24T09:12:50;102517.0;;;20.37;48.25
68376;BME280;55318;52.068;5.188;2023-05-24T09:14:30;102516.00000000001;;;20.11;48.94
68376;BME280;55318;52.068;5.188;2023-05-24T09:16:08;102522.0;;;20.04;48.14
68376;BME280;55318;52.068;5.188;2023-05-24T09:19:21;102525.0;;;19.64;50.56
68376;BME280;55318;52.068;5.188;2023-05-24T09:20:57;102524.0;;;19.71;50.0
68376;BME280;55318;52.068;5.188;2023-05-24T09:22:34;102525.0;;;19.81;50.27
68376;BME280;55318;52.068;5.188;2023-05-24T09:24:11;102529.0;;;19.71;50.79
68376;BME280;55318;52.068;5.188;2023-05-24T09:27:23;102528.0;;;19.68;50.89
68376;BME280;55318;52.068;5.188;2023-05-24T09:28:59;102529.0;;;19.72;53.35
68376;BME280;55318;52.068;5.188;2023-05-24T09:30:35;102536.99999999999;;;19.93;51.71
68376;BME280;55318;52.068;5.188;2023-05-24T09:33:47;102531.0;;;20.11;49.26
68376;BME280;55318;52.068;5.188;2023-05-24T09:35:24;102525.0;;;20.25;52.08
68376;BME280;55318;52.068;5.188;2023-05-24T09:37:00;102522.0;;;20.28;49.09
68376;BME280;55318;52.068;5.188;2023-05-24T09:40:17;102525.0;;;20.18;49.13
68376;BME280;55318;52.068;5.188;2023-05-24T09:41:53;102528.0;;;20.25;48.41
68376;BME280;55318;52.068;5.188;2023-05-24T09:43:31;102523.0;;;19.56;47.91
68376;BME280;55318;52.068;5.188;2023-05-24T09:45:08;102514.00000000001;;;19.72;50.93
68376;BME280;55318;52.068;5.188;2023-05-24T09:48:20;102518.0;;;20.0;51.85
68376;BME280;55318;52.068;5.188;2023-05-24T09:49:56;102517.0;;;20.09;49.99
68376;BME280;55318;52.068;5.188;2023-05-24T09:51:35;102515.00000000001;;;20.37;53.17
68376;BME280;55318;52.068;5.188;2023-05-24T09:54:53;102519.0;;;20.02;47.54
68376;BME280;55318;52.068;5.188;2023-05-24T09:56:29;102521.0;;;20.47;52.1
68376;BME280;55318;52.068;5.188;2023-05-24T09:58:08;102523.0;;;20.69;48.08
68376;BME280;55318;52.068;5.188;2023-05-24T10:01:22;102522.0;;;20.62;44.91
68376;BME280;55318;52.068;5.188;2023-05-24T10:03:00;102527.0;;;20.9;48.81
68376;BME280;55318;52.068;5.188;2023-05-24T10:04:36;102528.0;;;21.06;47.17
68376;BME280;55318;52.068;5.188;2023-05-24T10:06:13;102521.0;;;21.21;48.72
68376;BME280;55318;52.068;5.188;2023-05-24T10:09:28;102525.0;;;21.09;46.29
68376;BME280;55318;52.068;5.188;2023-05-24T10:11:04;102534.99999999999;;;21.01;46.34
68376;BME280;55318;52.068;5.188;2023-05-24T10:12:41;102538.00000000001;;;20.88;48.47
68376;BME280;55318;52.068;5.188;2023-05-24T10:15:54;102533.99999999999;;;20.72;46.18
68376;BME280;55318;52.068;5.188;2023-05-24T10:17:30;102532.0;;;20.74;44.55
68376;BME280;55318;52.068;5.188;2023-05-24T10:19:06;102528.0;;;20.93;47.3
68376;BME280;55318;52.068;5.188;2023-05-24T10:20:43;102523.0;;;21.12;47.2
68376;BME280;55318;52.068;5.188;2023-05-24T10:23:58;102521.0;;;21.18;45.26
68376;BME280;55318;52.068;5.188;2023-05-24T10:25:40;102517.0;;;21.29;46.42
68376;BME280;55318;52.068;5.188;2023-05-24T10:27:22;102519.0;;;21.58;47.33
68376;BME280;55318;52.068;5.188;2023-05-24T10:30:47;102521.0;;;21.31;44.93
68376;BME280;55318;52.068;5.188;2023-05-24T10:32:30;102522.0;;;21.36;44.74
68376;BME280;55318;52.068;5.188;2023-05-24T10:34:09;102521.0;;;21.24;45.57
68376;BME280;55318;52.068;5.188;2023-05-24T10:35:46;102523.0;;;20.89;47.78
68376;BME280;55318;52.068;5.188;2023-05-24T10:38:59;102517.0;;;21.03;45.53
68376;BME280;55318;52.068;5.188;2023-05-24T10:40:40;102516.00000000001;;;20.53;46.97
68376;BME280;55318;52.068;5.188;2023-05-24T10:42:17;102519.0;;;20.06;45.96